Anchorage/Merrill Field, Alaska
Current Conditions -  °F | °C
As of 8:53 AM on Wednesday 26 Nov 2014 (Local Time) from PAMR Reporting Station
Overcast Overcast  
Wind Chill: 22°   Ceiling: 4200
Heat Index: 28°   Visibility: 10mi
Dew Point: 24°   Wind: 6mph
Humidity: 85%   Direction: 350°N
Pressure: 30.33"   Gusts: NA
Location:  61.21°N, 149.85°W
Report Text: PAMR 261753Z 35005KT 10SM FEW008 OVC042 M02/M04 A3033 RMK AO2 SLP273 T10221044 11006 21022 55000
Loading
Personal Weather Stations






























Interactive Weather Map New forecast layout! Learn more

10-Day Weather Forecast

Advertisements
Track Severe Weather on mobile